Time;durP1;ratioP1;P1;durP2;ratioP2;P2;SDS_P1;SDS_P2;PMS_P1;PMS_P2;Temp;Humidity;BMP_temperature;BMP_pressure;BME280_temperature;BME280_humidity;BME280_pressure;Samples;Min_cycle;Max_cycle;Signal;HPM_P1;HPM_P2
2023/07/10 00:02:21;;;;;;;7.90;5.00;;;;;;;;;;5033875;28;20525;-56
2023/07/10 00:04:49;;;;;;;5.47;3.67;;;;;;;;;;5033991;28;20552;-56
2023/07/10 00:07:16;;;;;;;6.10;4.20;;;;;;;;;;5033813;28;20535;-56
2023/07/10 00:09:44;;;;;;;7.57;4.70;;;;;;;;;;5033789;28;20517;-57
2023/07/10 00:12:14;;;;;;;6.03;4.43;;;;;;;;;;5033671;28;20522;-56
2023/07/10 00:14:42;;;;;;;5.93;3.90;;;;;;;;;;5033745;28;21045;-56
2023/07/10 00:17:10;;;;;;;5.63;3.57;;;;;;;;;;5033638;28;20473;-56
2023/07/10 00:19:37;;;;;;;5.53;4.47;;;;;;;;;;5033655;28;20505;-56
2023/07/10 00:22:05;;;;;;;6.60;4.63;;;;;;;;;;5033310;28;20521;-57
2023/07/10 00:24:32;;;;;;;5.00;3.60;;;;;;;;;;5033375;28;20494;-56
2023/07/10 00:27:01;;;;;;;4.30;3.60;;;;;;;;;;5033619;28;20962;-56
2023/07/10 00:29:31;;;;;;;4.23;3.40;;;;;;;;;;5033129;28;20459;-56
2023/07/10 00:31:59;;;;;;;7.03;3.87;;;;;;;;;;5033176;28;21056;-56
2023/07/10 00:34:26;;;;;;;5.63;3.80;;;;;;;;;;5033377;28;20549;-56
2023/07/10 00:36:53;;;;;;;5.70;4.03;;;;;;;;;;5033573;28;20442;-56
2023/07/10 00:39:22;;;;;;;6.70;3.30;;;;;;;;;;5033364;28;20581;-56
2023/07/10 00:41:51;;;;;;;5.17;4.03;;;;;;;;;;5033095;28;20979;-56
2023/07/10 00:44:21;;;;;;;6.07;4.00;;;;;;;;;;5032705;28;20541;-56
2023/07/10 00:46:50;;;;;;;4.93;3.73;;;;;;;;;;5033186;28;20889;-56
2023/07/10 00:49:20;;;;;;;5.80;3.90;;;;;;;;;;5033223;28;20439;-56
2023/07/10 00:51:52;;;;;;;5.60;3.67;;;;;;;;;;5033258;28;20522;-56
2023/07/10 00:54:22;;;;;;;4.37;3.60;;;;;;;;;;5033039;28;20544;-56
2023/07/10 00:56:49;;;;;;;5.77;3.97;;;;;;;;;;5032907;28;20966;-56
2023/07/10 00:59:22;;;;;;;5.10;3.83;;;;;;;;;;5032787;28;20912;-56
2023/07/10 01:02:09;;;;;;;4.30;2.87;;;;;;;;;;5032968;28;20474;-56
2023/07/10 01:04:39;;;;;;;4.23;3.83;;;;;;;;;;5032607;28;20474;-56
2023/07/10 01:07:07;;;;;;;5.20;4.13;;;;;;;;;;5031970;28;20821;-55
2023/07/10 01:09:34;;;;;;;5.37;3.77;;;;;;;;;;5032796;28;21000;-55
2023/07/10 01:12:03;;;;;;;4.40;3.80;;;;;;;;;;5032352;28;20880;-55
2023/07/10 01:14:34;;;;;;;5.30;3.60;;;;;;;;;;5032465;28;20982;-55
2023/07/10 01:17:01;;;;;;;3.77;3.10;;;;;;;;;;5032611;28;20530;-56
2023/07/10 01:19:29;;;;;;;5.20;3.93;;;;;;;;;;5032715;28;20506;-55
2023/07/10 01:21:58;;;;;;;4.90;3.80;;;;;;;;;;5032554;28;20544;-55
2023/07/10 01:24:25;;;;;;;4.57;3.43;;;;;;;;;;5032353;28;20922;-55
2023/07/10 01:26:53;;;;;;;6.20;4.57;;;;;;;;;;5032301;28;20939;-55
2023/07/10 01:29:23;;;;;;;5.40;4.03;;;;;;;;;;5016749;28;20467;-56
2023/07/10 01:31:51;;;;;;;4.60;3.47;;;;;;;;;;5032116;28;20804;-56
2023/07/10 01:34:19;;;;;;;5.13;3.30;;;;;;;;;;5032051;28;20466;-56
2023/07/10 01:36:47;;;;;;;5.30;3.63;;;;;;;;;;5032351;28;20470;-56
2023/07/10 01:39:28;;;;;;;5.57;3.80;;;;;;;;;;5032212;28;20561;-56
2023/07/10 01:41:56;;;;;;;4.80;3.60;;;;;;;;;;5032207;28;20442;-56
2023/07/10 01:44:24;;;;;;;3.70;3.03;;;;;;;;;;5031625;28;20470;-56
2023/07/10 01:46:51;;;;;;;5.70;3.80;;;;;;;;;;5031921;28;20533;-56
2023/07/10 01:49:20;;;;;;;5.93;3.60;;;;;;;;;;5032301;28;20520;-56
2023/07/10 01:51:47;;;;;;;5.23;3.60;;;;;;;;;;5031758;28;20881;-56
2023/07/10 01:54:16;;;;;;;6.40;4.10;;;;;;;;;;5031680;28;20498;-56
2023/07/10 01:56:45;;;;;;;4.97;3.50;;;;;;;;;;5031981;28;20470;-56
2023/07/10 01:59:12;;;;;;;7.30;4.10;;;;;;;;;;5031472;28;20998;-56
2023/07/10 02:01:39;;;;;;;4.30;3.43;;;;;;;;;;5031646;28;20478;-56
2023/07/10 02:04:06;;;;;;;6.60;3.83;;;;;;;;;;5054841;23;20589;-47
2023/07/10 02:06:35;;;;;;;4.07;3.43;;;;;;;;;;5031668;28;20585;-47
2023/07/10 02:09:02;;;;;;;4.80;3.70;;;;;;;;;;5031421;28;20524;-47
2023/07/10 02:11:30;;;;;;;5.30;4.03;;;;;;;;;;5031174;28;20538;-48
2023/07/10 02:13:58;;;;;;;5.60;3.90;;;;;;;;;;5022451;28;20491;-49
2023/07/10 02:16:25;;;;;;;4.87;4.00;;;;;;;;;;5011941;28;20494;-48
2023/07/10 02:18:53;;;;;;;5.77;4.33;;;;;;;;;;5011072;28;20471;-47
2023/07/10 02:21:20;;;;;;;5.03;3.70;;;;;;;;;;5011774;28;20975;-47
2023/07/10 02:23:47;;;;;;;4.57;3.70;;;;;;;;;;5011152;28;20534;-48
2023/07/10 02:26:15;;;;;;;4.30;3.63;;;;;;;;;;5011487;28;20455;-48
2023/07/10 02:28:43;;;;;;;5.30;3.57;;;;;;;;;;4996971;28;20820;-49
2023/07/10 02:31:11;;;;;;;4.50;3.67;;;;;;;;;;5010528;28;20482;-50
2023/07/10 02:33:40;;;;;;;5.97;4.33;;;;;;;;;;5011479;28;20468;-50
2023/07/10 02:36:07;;;;;;;3.90;3.30;;;;;;;;;;5011476;28;20489;-47
2023/07/10 02:38:35;;;;;;;3.40;2.70;;;;;;;;;;5011255;28;21072;-50
2023/07/10 02:41:02;;;;;;;4.40;3.90;;;;;;;;;;5011271;28;20479;-49
2023/07/10 02:43:29;;;;;;;4.53;4.00;;;;;;;;;;5010541;28;20549;-50
2023/07/10 02:45:56;;;;;;;4.80;3.50;;;;;;;;;;5011683;28;20544;-49
2023/07/10 02:48:25;;;;;;;4.23;3.40;;;;;;;;;;5011263;28;20526;-50
2023/07/10 02:50:52;;;;;;;4.10;3.40;;;;;;;;;;5013522;28;20471;-48
2023/07/10 02:53:19;;;;;;;4.50;3.60;;;;;;;;;;5010853;28;20562;-50
2023/07/10 02:55:47;;;;;;;4.50;3.53;;;;;;;;;;5011693;28;20478;-48
2023/07/10 02:58:14;;;;;;;5.10;4.30;;;;;;;;;;5011742;28;20494;-50
2023/07/10 03:00:41;;;;;;;5.03;3.63;;;;;;;;;;5011078;28;20919;-50
2023/07/10 03:03:08;;;;;;;5.20;3.47;;;;;;;;;;5010846;28;20451;-49
2023/07/10 03:05:37;;;;;;;4.07;3.53;;;;;;;;;;5011047;28;20526;-50
2023/07/10 03:08:04;;;;;;;4.90;4.10;;;;;;;;;;5010875;28;20547;-49
2023/07/10 03:10:32;;;;;;;4.43;3.27;;;;;;;;;;5011224;28;20435;-49
2023/07/10 03:12:59;;;;;;;5.20;3.83;;;;;;;;;;5010871;28;20479;-48
2023/07/10 03:15:26;;;;;;;5.37;3.57;;;;;;;;;;5010981;28;20494;-49
2023/07/10 03:17:53;;;;;;;4.77;4.20;;;;;;;;;;5010682;28;20589;-49
2023/07/10 03:20:21;;;;;;;5.10;3.13;;;;;;;;;;5010757;28;20510;-50
2023/07/10 03:22:49;;;;;;;5.83;3.50;;;;;;;;;;5011261;28;20467;-50
2023/07/10 03:25:16;;;;;;;4.67;3.90;;;;;;;;;;5010903;28;20498;-49
2023/07/10 03:27:44;;;;;;;4.83;3.90;;;;;;;;;;5010394;28;20436;-48
2023/07/10 03:30:11;;;;;;;4.03;3.03;;;;;;;;;;5012431;28;20471;-49
2023/07/10 03:32:39;;;;;;;5.27;3.70;;;;;;;;;;5014421;28;21094;-50
2023/07/10 03:35:06;;;;;;;4.47;3.20;;;;;;;;;;5014658;28;20478;-49
2023/07/10 03:37:34;;;;;;;5.20;4.10;;;;;;;;;;5014684;28;20523;-50
2023/07/10 03:40:03;;;;;;;7.07;3.70;;;;;;;;;;5014496;28;20557;-50
2023/07/10 03:42:30;;;;;;;4.33;3.93;;;;;;;;;;5014212;28;20733;-48
2023/07/10 03:44:57;;;;;;;4.53;3.67;;;;;;;;;;5014125;28;20491;-50
2023/07/10 03:47:24;;;;;;;5.10;3.90;;;;;;;;;;5014880;28;20443;-49
2023/07/10 03:49:52;;;;;;;5.90;3.93;;;;;;;;;;5014346;28;20493;-50
2023/07/10 03:52:19;;;;;;;5.27;4.00;;;;;;;;;;5014103;28;20431;-48
2023/07/10 03:54:46;;;;;;;4.20;3.43;;;;;;;;;;5014444;28;20505;-50
2023/07/10 03:57:15;;;;;;;5.47;4.00;;;;;;;;;;5013952;28;20439;-49
2023/07/10 03:59:42;;;;;;;4.47;3.20;;;;;;;;;;5014486;28;20510;-49
2023/07/10 04:02:09;;;;;;;4.40;3.20;;;;;;;;;;5014156;28;20533;-48
2023/07/10 04:04:36;;;;;;;5.40;4.00;;;;;;;;;;5013950;28;20913;-50
2023/07/10 04:07:04;;;;;;;5.03;3.57;;;;;;;;;;5013995;28;20742;-49
2023/07/10 04:09:31;;;;;;;4.50;3.63;;;;;;;;;;5014049;28;20467;-50
2023/07/10 04:11:58;;;;;;;7.80;3.83;;;;;;;;;;5013884;28;20529;-49
2023/07/10 04:14:27;;;;;;;4.90;4.07;;;;;;;;;;5013989;28;20467;-49
2023/07/10 04:16:54;;;;;;;5.03;3.73;;;;;;;;;;5014062;28;20529;-49
2023/07/10 04:19:21;;;;;;;5.43;3.93;;;;;;;;;;5013868;28;20894;-48
2023/07/10 04:21:49;;;;;;;4.50;3.80;;;;;;;;;;5013611;28;20495;-50
2023/07/10 04:24:17;;;;;;;4.50;3.30;;;;;;;;;;5013365;28;20483;-49
2023/07/10 04:26:45;;;;;;;5.53;4.53;;;;;;;;;;5014185;28;20527;-49
2023/07/10 04:29:13;;;;;;;6.97;3.40;;;;;;;;;;4998357;28;20947;-49
2023/07/10 04:31:42;;;;;;;4.23;3.60;;;;;;;;;;5013638;28;21015;-48
2023/07/10 04:34:09;;;;;;;4.20;3.63;;;;;;;;;;5013343;28;20547;-50
2023/07/10 04:36:36;;;;;;;3.83;2.80;;;;;;;;;;5013604;28;20475;-50
2023/07/10 04:39:03;;;;;;;4.37;3.10;;;;;;;;;;5013862;28;20532;-50
2023/07/10 04:41:30;;;;;;;6.17;4.07;;;;;;;;;;5012798;28;20474;-49
2023/07/10 04:43:58;;;;;;;5.13;3.60;;;;;;;;;;5012799;28;20828;-49
2023/07/10 04:46:25;;;;;;;4.70;3.80;;;;;;;;;;5013422;28;20443;-49
2023/07/10 04:48:54;;;;;;;5.90;3.70;;;;;;;;;;5013050;28;21051;-49
2023/07/10 04:51:21;;;;;;;7.00;4.43;;;;;;;;;;5010944;28;20959;-50
2023/07/10 04:53:49;;;;;;;3.93;3.53;;;;;;;;;;5012820;28;20846;-50
2023/07/10 04:56:17;;;;;;;5.40;3.37;;;;;;;;;;5013087;28;20498;-50
2023/07/10 04:58:52;;;;;;;4.80;3.67;;;;;;;;;;5013686;28;20473;-50
2023/07/10 05:01:21;;;;;;;4.43;3.90;;;;;;;;;;5000779;28;20487;-48
2023/07/10 05:03:48;;;;;;;9.53;4.20;;;;;;;;;;5011592;28;20902;-49
2023/07/10 05:06:17;;;;;;;5.83;4.23;;;;;;;;;;5006665;28;20518;-48
2023/07/10 05:08:44;;;;;;;6.40;4.23;;;;;;;;;;5004161;28;20587;-49
2023/07/10 05:11:12;;;;;;;4.80;3.67;;;;;;;;;;5012140;28;21185;-50
2023/07/10 05:13:39;;;;;;;6.00;4.37;;;;;;;;;;5004886;28;20483;-50
2023/07/10 05:16:06;;;;;;;3.80;3.37;;;;;;;;;;5003275;28;20534;-49
2023/07/10 05:18:34;;;;;;;4.33;3.90;;;;;;;;;;5004051;28;20908;-51
2023/07/10 05:21:01;;;;;;;5.83;3.93;;;;;;;;;;5006443;28;20601;-49
2023/07/10 05:23:30;;;;;;;6.13;3.43;;;;;;;;;;4999526;28;20547;-50
2023/07/10 05:25:59;;;;;;;5.60;4.57;;;;;;;;;;5004135;28;20523;-50
2023/07/10 05:28:27;;;;;;;5.43;4.10;;;;;;;;;;5005598;28;20478;-50
2023/07/10 05:30:54;;;;;;;5.07;3.60;;;;;;;;;;5012673;28;20534;-49
2023/07/10 05:33:21;;;;;;;4.60;3.63;;;;;;;;;;5011732;28;20499;-49
2023/07/10 05:35:53;;;;;;;6.57;3.60;;;;;;;;;;5012474;28;20529;-48
2023/07/10 05:38:21;;;;;;;5.70;3.90;;;;;;;;;;5012264;28;20447;-48
2023/07/10 05:40:49;;;;;;;7.03;4.90;;;;;;;;;;5001317;28;20615;-48
2023/07/10 05:43:16;;;;;;;7.63;4.87;;;;;;;;;;5011923;28;20542;-49
2023/07/10 05:45:44;;;;;;;6.37;4.10;;;;;;;;;;5006108;28;20527;-48
2023/07/10 05:48:11;;;;;;;5.50;4.10;;;;;;;;;;5002583;28;20463;-49
2023/07/10 05:50:39;;;;;;;4.00;3.30;;;;;;;;;;5009341;28;20494;-46
2023/07/10 05:53:06;;;;;;;4.57;3.33;;;;;;;;;;5010397;28;20482;-47
2023/07/10 05:55:33;;;;;;;6.10;4.67;;;;;;;;;;5010586;28;20476;-46
2023/07/10 05:58:02;;;;;;;4.30;3.90;;;;;;;;;;5010018;28;20970;-46
2023/07/10 06:00:29;;;;;;;4.60;3.47;;;;;;;;;;5010573;28;20911;-47
2023/07/10 06:02:56;;;;;;;6.63;4.53;;;;;;;;;;5010659;28;20531;-47
2023/07/10 06:05:23;;;;;;;8.87;4.77;;;;;;;;;;5011308;28;20484;-46
2023/07/10 06:07:50;;;;;;;8.83;4.20;;;;;;;;;;5011947;28;20443;-47
2023/07/10 06:10:18;;;;;;;5.00;4.40;;;;;;;;;;5012014;28;20474;-47
2023/07/10 06:12:45;;;;;;;4.53;3.63;;;;;;;;;;5014972;28;20997;-46
2023/07/10 06:15:14;;;;;;;4.80;3.67;;;;;;;;;;5011875;28;20541;-47
2023/07/10 06:17:41;;;;;;;4.70;3.80;;;;;;;;;;5011736;28;20978;-48
2023/07/10 06:20:09;;;;;;;5.60;3.63;;;;;;;;;;5011416;28;20764;-49
2023/07/10 06:22:36;;;;;;;4.00;3.23;;;;;;;;;;5007110;28;20751;-48
2023/07/10 06:25:03;;;;;;;4.93;3.80;;;;;;;;;;5005591;28;20497;-47
2023/07/10 06:27:30;;;;;;;5.23;4.03;;;;;;;;;;5008435;28;20530;-49
2023/07/10 06:29:59;;;;;;;4.40;3.80;;;;;;;;;;5009610;28;20483;-49
2023/07/10 06:32:27;;;;;;;4.90;3.63;;;;;;;;;;5008619;28;20454;-46
2023/07/10 06:34:54;;;;;;;4.53;4.00;;;;;;;;;;5000623;28;20550;-48
2023/07/10 06:37:22;;;;;;;5.37;3.40;;;;;;;;;;5006344;28;20527;-47
2023/07/10 06:40:04;;;;;;;5.57;4.10;;;;;;;;;;5010901;28;20522;-49
2023/07/10 06:42:31;;;;;;;6.93;4.70;;;;;;;;;;5008696;28;20443;-49
2023/07/10 06:44:59;;;;;;;4.67;3.67;;;;;;;;;;5011303;28;20509;-47
2023/07/10 06:47:27;;;;;;;4.40;4.00;;;;;;;;;;5011150;28;20470;-47
2023/07/10 06:49:55;;;;;;;4.40;4.00;;;;;;;;;;5011246;28;20523;-49
2023/07/10 06:52:22;;;;;;;5.50;3.90;;;;;;;;;;5011149;28;20475;-48
2023/07/10 06:54:49;;;;;;;6.30;3.97;;;;;;;;;;5011427;28;20467;-47
2023/07/10 06:57:16;;;;;;;4.37;3.53;;;;;;;;;;5011080;28;20443;-46
2023/07/10 06:59:44;;;;;;;5.27;4.00;;;;;;;;;;5011096;28;20521;-48
2023/07/10 07:02:13;;;;;;;4.60;4.10;;;;;;;;;;5011114;28;20451;-48
2023/07/10 07:04:42;;;;;;;4.50;3.40;;;;;;;;;;5010361;28;20831;-49
2023/07/10 07:07:09;;;;;;;5.00;3.93;;;;;;;;;;5006733;28;20479;-48
2023/07/10 07:09:37;;;;;;;5.33;3.87;;;;;;;;;;5011328;28;20471;-48
2023/07/10 07:12:04;;;;;;;4.70;3.53;;;;;;;;;;5010735;28;20486;-48
2023/07/10 07:14:32;;;;;;;4.80;3.80;;;;;;;;;;5003392;28;20549;-47
2023/07/10 07:16:59;;;;;;;7.43;5.63;;;;;;;;;;5009551;28;20447;-49
2023/07/10 07:19:26;;;;;;;6.57;5.67;;;;;;;;;;5011327;28;20525;-47
2023/07/10 07:21:55;;;;;;;7.73;5.57;;;;;;;;;;5002808;28;20511;-49
2023/07/10 07:24:22;;;;;;;6.23;4.73;;;;;;;;;;5010292;28;20577;-46
2023/07/10 07:26:49;;;;;;;5.17;3.53;;;;;;;;;;4996957;28;20534;-46
2023/07/10 07:29:16;;;;;;;6.40;3.90;;;;;;;;;;5003842;28;20466;-48
2023/07/10 07:31:44;;;;;;;5.90;4.50;;;;;;;;;;5008102;28;20869;-49
2023/07/10 07:34:11;;;;;;;5.27;3.90;;;;;;;;;;4999436;28;20526;-47
2023/07/10 07:36:38;;;;;;;6.83;4.63;;;;;;;;;;5009483;28;20866;-47
2023/07/10 07:39:07;;;;;;;7.10;4.80;;;;;;;;;;5001697;28;20483;-49
2023/07/10 07:41:34;;;;;;;8.80;4.80;;;;;;;;;;5006880;28;20510;-48
2023/07/10 07:44:01;;;;;;;5.20;4.13;;;;;;;;;;4997797;28;21004;-48
2023/07/10 07:46:29;;;;;;;7.37;4.10;;;;;;;;;;5009460;28;20466;-47
2023/07/10 07:48:56;;;;;;;6.27;4.77;;;;;;;;;;5010370;28;20489;-48
2023/07/10 07:51:23;;;;;;;5.53;4.53;;;;;;;;;;5006376;28;20530;-49
2023/07/10 07:54:02;;;;;;;5.10;4.13;;;;;;;;;;5001101;28;20464;-49
2023/07/10 07:56:30;;;;;;;5.20;3.70;;;;;;;;;;5004161;28;20482;-49
2023/07/10 07:58:57;;;;;;;5.00;3.93;;;;;;;;;;5009153;28;20994;-48
2023/07/10 08:01:25;;;;;;;5.80;3.90;;;;;;;;;;5010205;28;20566;-49
2023/07/10 08:03:52;;;;;;;4.43;4.03;;;;;;;;;;5029014;23;20892;-84
2023/07/10 08:06:20;;;;;;;4.43;3.77;;;;;;;;;;5051109;28;20940;-83
2023/07/10 08:08:47;;;;;;;9.27;5.23;;;;;;;;;;5033797;28;20498;-84
2023/07/10 08:11:17;;;;;;;4.80;4.30;;;;;;;;;;5031065;28;20521;-84
2023/07/10 08:13:45;;;;;;;5.00;3.67;;;;;;;;;;5030628;28;20525;-83
2023/07/10 08:16:13;;;;;;;5.83;3.80;;;;;;;;;;5033162;28;20442;-85
2023/07/10 08:18:41;;;;;;;5.50;4.40;;;;;;;;;;5044944;23;20605;-47
2023/07/10 08:21:09;;;;;;;4.93;3.80;;;;;;;;;;5013833;28;20475;-49
2023/07/10 08:23:36;;;;;;;5.77;4.83;;;;;;;;;;5008607;28;20504;-47
2023/07/10 08:26:04;;;;;;;4.47;3.83;;;;;;;;;;4994161;28;20535;-48
2023/07/10 08:28:31;;;;;;;5.37;4.57;;;;;;;;;;4992263;28;21128;-49
2023/07/10 08:33:27;;;;;;;9.33;5.03;;;;;;;;;;5058999;23;21023;-84
2023/07/10 08:35:56;;;;;;;11.43;5.00;;;;;;;;;;5040323;28;20500;-85
2023/07/10 08:38:24;;;;;;;5.30;4.33;;;;;;;;;;5030567;28;20506;-85
2023/07/10 08:40:52;;;;;;;5.20;4.63;;;;;;;;;;5021319;28;20530;-85
2023/07/10 08:43:25;;;;;;;6.50;5.70;;;;;;;;;;5020787;28;21003;-84
2023/07/10 08:45:53;;;;;;;6.07;4.43;;;;;;;;;;5065141;23;20485;-51
2023/07/10 08:48:24;;;;;;;5.77;4.80;;;;;;;;;;5051977;28;20442;-50
2023/07/10 08:50:53;;;;;;;5.73;5.13;;;;;;;;;;5053260;28;20442;-50
2023/07/10 08:53:23;;;;;;;6.23;4.40;;;;;;;;;;5033691;28;20541;-50
2023/07/10 08:55:53;;;;;;;6.80;4.50;;;;;;;;;;5032984;28;20529;-50
2023/07/10 08:58:22;;;;;;;5.43;4.23;;;;;;;;;;5033616;28;20505;-50
2023/07/10 09:00:51;;;;;;;5.20;4.43;;;;;;;;;;5032504;28;20549;-50
2023/07/10 09:03:22;;;;;;;7.10;4.10;;;;;;;;;;5032544;28;20520;-51
2023/07/10 09:05:50;;;;;;;4.57;4.10;;;;;;;;;;5033191;28;21010;-51
2023/07/10 09:08:19;;;;;;;5.60;5.03;;;;;;;;;;5033319;28;20474;-50
2023/07/10 09:10:48;;;;;;;7.07;5.20;;;;;;;;;;5033078;28;20532;-50
2023/07/10 09:13:17;;;;;;;6.40;5.70;;;;;;;;;;5031712;28;20521;-50
2023/07/10 09:15:49;;;;;;;7.37;5.20;;;;;;;;;;5032713;28;20950;-51
2023/07/10 09:18:20;;;;;;;4.37;3.57;;;;;;;;;;5032783;28;20442;-50
2023/07/10 09:20:49;;;;;;;6.60;5.47;;;;;;;;;;5032474;28;21074;-51
2023/07/10 09:23:21;;;;;;;6.80;5.37;;;;;;;;;;5032691;28;20541;-50
2023/07/10 09:25:54;;;;;;;4.53;4.03;;;;;;;;;;5032192;28;20470;-50
2023/07/10 09:28:21;;;;;;;6.80;5.67;;;;;;;;;;5031830;28;20526;-50
2023/07/10 09:30:53;;;;;;;6.60;4.47;;;;;;;;;;5032408;28;20905;-50
2023/07/10 09:33:21;;;;;;;8.43;5.00;;;;;;;;;;5032296;28;20501;-51
2023/07/10 09:35:48;;;;;;;4.07;3.67;;;;;;;;;;5032700;28;20457;-51
2023/07/10 09:38:18;;;;;;;5.90;5.30;;;;;;;;;;5032371;28;20478;-52
2023/07/10 09:40:47;;;;;;;5.20;4.70;;;;;;;;;;5032087;28;20482;-51
2023/07/10 09:43:16;;;;;;;5.07;4.57;;;;;;;;;;5032177;28;20467;-50
2023/07/10 09:45:44;;;;;;;4.97;4.43;;;;;;;;;;5031977;28;20556;-50
2023/07/10 09:48:17;;;;;;;5.73;4.10;;;;;;;;;;5031812;28;20508;-50
2023/07/10 09:50:49;;;;;;;8.50;5.00;;;;;;;;;;5031952;28;21008;-50
2023/07/10 09:53:24;;;;;;;7.87;5.20;;;;;;;;;;5031747;28;21001;-50
2023/07/10 09:55:53;;;;;;;6.20;4.77;;;;;;;;;;5031928;28;21042;-50
2023/07/10 09:58:20;;;;;;;5.30;4.80;;;;;;;;;;5031951;28;20896;-50
2023/07/10 10:00:48;;;;;;;4.70;4.27;;;;;;;;;;5032067;28;20439;-51
2023/07/10 10:03:17;;;;;;;6.40;5.73;;;;;;;;;;5031703;28;20477;-50
2023/07/10 10:05:50;;;;;;;5.60;5.10;;;;;;;;;;5031766;28;20931;-51
2023/07/10 10:08:21;;;;;;;5.10;4.60;;;;;;;;;;5031730;28;20442;-52
2023/07/10 10:11:01;;;;;;;4.43;3.93;;;;;;;;;;5031800;28;20976;-51
2023/07/10 10:13:30;;;;;;;4.97;4.47;;;;;;;;;;5030649;28;20536;-50
2023/07/10 10:16:03;;;;;;;6.20;5.50;;;;;;;;;;5031661;28;20530;-53
2023/07/10 10:18:42;;;;;;;6.10;5.50;;;;;;;;;;5031463;28;21013;-50
2023/07/10 10:21:12;;;;;;;7.17;5.23;;;;;;;;;;5030001;28;20566;-50
2023/07/10 10:23:41;;;;;;;5.73;5.00;;;;;;;;;;5030675;28;20533;-50
2023/07/10 10:26:29;;;;;;;6.00;4.50;;;;;;;;;;5031808;28;20526;-51
2023/07/10 10:29:03;;;;;;;7.37;5.90;;;;;;;;;;5019999;28;20523;-50
2023/07/10 10:31:33;;;;;;;5.10;4.60;;;;;;;;;;5020012;28;20486;-52
2023/07/10 10:34:04;;;;;;;6.03;5.50;;;;;;;;;;5021035;28;20518;-51
2023/07/10 10:36:36;;;;;;;10.10;5.60;;;;;;;;;;5019927;28;20732;-52
2023/07/10 10:39:05;;;;;;;5.70;5.03;;;;;;;;;;5018736;28;20545;-52
2023/07/10 10:41:43;;;;;;;7.97;6.77;;;;;;;;;;5020311;28;20904;-52
2023/07/10 10:44:20;;;;;;;5.80;5.13;;;;;;;;;;5020820;28;20435;-51
2023/07/10 10:47:01;;;;;;;6.20;4.83;;;;;;;;;;5021507;28;20517;-51
2023/07/10 10:49:36;;;;;;;6.67;5.33;;;;;;;;;;5020184;28;20881;-50
2023/07/10 10:52:10;;;;;;;6.77;5.57;;;;;;;;;;5028221;28;20493;-50
2023/07/10 10:54:44;;;;;;;6.43;5.80;;;;;;;;;;5027759;28;20471;-51
2023/07/10 10:57:26;;;;;;;6.77;6.10;;;;;;;;;;5023490;28;20442;-50
2023/07/10 11:00:00;;;;;;;9.57;6.50;;;;;;;;;;5031039;28;20896;-50
2023/07/10 11:02:33;;;;;;;7.27;6.57;;;;;;;;;;5030716;28;20521;-51
2023/07/10 11:05:04;;;;;;;7.57;6.27;;;;;;;;;;5031140;28;20877;-51
2023/07/10 11:07:32;;;;;;;8.27;6.83;;;;;;;;;;5030007;28;21224;-51
2023/07/10 11:10:01;;;;;;;6.30;4.77;;;;;;;;;;5030490;28;20911;-52
2023/07/10 11:12:30;;;;;;;5.03;4.53;;;;;;;;;;5029425;28;21057;-52
2023/07/10 11:15:01;;;;;;;8.63;6.50;;;;;;;;;;5030024;28;20446;-53
2023/07/10 11:17:28;;;;;;;9.23;6.10;;;;;;;;;;5030592;28;20447;-51
2023/07/10 11:19:56;;;;;;;8.27;6.27;;;;;;;;;;5029935;28;20816;-52
2023/07/10 11:22:27;;;;;;;5.93;5.30;;;;;;;;;;5029087;28;20589;-52
2023/07/10 11:24:55;;;;;;;6.83;6.13;;;;;;;;;;5028365;28;20766;-51
2023/07/10 11:27:24;;;;;;;5.83;4.97;;;;;;;;;;5028934;28;20474;-51
2023/07/10 11:29:55;;;;;;;8.10;6.70;;;;;;;;;;5027185;28;20529;-52
2023/07/10 11:32:25;;;;;;;8.77;6.80;;;;;;;;;;5028590;28;20490;-52
2023/07/10 11:34:54;;;;;;;5.80;5.20;;;;;;;;;;5029023;28;20905;-51
2023/07/10 11:37:54;;;;;;;6.40;4.77;;;;;;;;;;5030264;28;20470;-51
2023/07/10 11:40:42;;;;;;;7.30;5.93;;;;;;;;;;5031173;28;20465;-51
2023/07/10 11:43:28;;;;;;;6.53;5.93;;;;;;;;;;5028971;28;20577;-51
2023/07/10 11:46:03;;;;;;;10.67;6.97;;;;;;;;;;5030575;28;21009;-51
2023/07/10 11:48:40;;;;;;;10.40;6.37;;;;;;;;;;5031146;28;20528;-51
2023/07/10 11:51:22;;;;;;;7.07;6.20;;;;;;;;;;5033300;28;20541;-52
2023/07/10 11:54:02;;;;;;;8.83;6.10;;;;;;;;;;5032228;28;20529;-52
2023/07/10 11:56:29;;;;;;;6.97;5.40;;;;;;;;;;5033504;28;20442;-52
2023/07/10 11:58:59;;;;;;;9.20;5.67;;;;;;;;;;5034216;28;20514;-52
2023/07/10 12:01:26;;;;;;;8.20;5.70;;;;;;;;;;5034169;28;20497;-51
2023/07/10 12:03:56;;;;;;;7.70;5.70;;;;;;;;;;5033672;28;20452;-52
2023/07/10 12:06:24;;;;;;;5.90;5.30;;;;;;;;;;5034228;28;20528;-51
2023/07/10 12:08:52;;;;;;;7.90;5.57;;;;;;;;;;5034099;28;20482;-52
2023/07/10 12:11:30;;;;;;;7.20;6.07;;;;;;;;;;5033024;28;20526;-51
2023/07/10 12:14:03;;;;;;;9.20;5.87;;;;;;;;;;5033536;28;20446;-51
2023/07/10 12:16:30;;;;;;;6.73;5.73;;;;;;;;;;5033829;28;20542;-53
2023/07/10 12:19:05;;;;;;;6.53;5.83;;;;;;;;;;5034027;28;20488;-51
2023/07/10 12:21:32;;;;;;;5.47;4.97;;;;;;;;;;5041351;28;20496;-51
2023/07/10 12:24:01;;;;;;;6.03;5.20;;;;;;;;;;5052901;28;20528;-51
2023/07/10 12:26:29;;;;;;;6.40;5.10;;;;;;;;;;5054128;28;20438;-51
2023/07/10 12:28:56;;;;;;;6.50;4.70;;;;;;;;;;5052943;28;20788;-52
2023/07/10 12:31:25;;;;;;;5.37;4.87;;;;;;;;;;5053185;28;20519;-52
2023/07/10 12:33:53;;;;;;;7.10;5.13;;;;;;;;;;5053468;28;20528;-52
2023/07/10 12:36:25;;;;;;;6.30;5.07;;;;;;;;;;5053000;28;20503;-51
2023/07/10 12:38:53;;;;;;;5.07;4.50;;;;;;;;;;5053446;28;20536;-53
2023/07/10 12:41:21;;;;;;;6.83;4.57;;;;;;;;;;5053380;28;20473;-51
2023/07/10 12:43:49;;;;;;;7.30;4.87;;;;;;;;;;5053247;28;20530;-51
2023/07/10 12:46:17;;;;;;;5.03;4.43;;;;;;;;;;5053270;28;20556;-51
2023/07/10 12:48:46;;;;;;;7.73;5.13;;;;;;;;;;5053435;28;20474;-51
2023/07/10 12:51:19;;;;;;;5.93;4.40;;;;;;;;;;5053270;28;20946;-52
2023/07/10 12:53:48;;;;;;;6.90;4.50;;;;;;;;;;5053119;28;20453;-50
2023/07/10 12:56:23;;;;;;;6.10;5.50;;;;;;;;;;5053130;28;20709;-52
2023/07/10 12:58:51;;;;;;;6.47;4.73;;;;;;;;;;5053191;28;20473;-50
2023/07/10 13:01:21;;;;;;;6.03;5.17;;;;;;;;;;5052600;28;20473;-50
2023/07/10 13:04:00;;;;;;;6.20;4.50;;;;;;;;;;5052836;28;20560;-50
2023/07/10 13:06:27;;;;;;;5.50;4.60;;;;;;;;;;5053192;28;20484;-50
2023/07/10 13:08:58;;;;;;;6.20;4.83;;;;;;;;;;5053123;28;20528;-50
2023/07/10 13:11:27;;;;;;;6.33;5.07;;;;;;;;;;5052752;28;20540;-51
2023/07/10 13:13:54;;;;;;;5.93;5.07;;;;;;;;;;5052461;28;20448;-51
2023/07/10 13:16:23;;;;;;;6.00;4.80;;;;;;;;;;5052918;28;20590;-50
2023/07/10 13:18:50;;;;;;;5.80;4.77;;;;;;;;;;5052715;28;20445;-52
2023/07/10 13:21:20;;;;;;;8.13;4.80;;;;;;;;;;5052806;28;20479;-50
2023/07/10 13:23:47;;;;;;;6.07;4.70;;;;;;;;;;5051814;28;20924;-50
2023/07/10 13:26:19;;;;;;;8.27;4.50;;;;;;;;;;5052812;28;20484;-50
2023/07/10 13:28:47;;;;;;;8.20;4.77;;;;;;;;;;5051522;28;20971;-52
2023/07/10 13:31:14;;;;;;;6.00;5.00;;;;;;;;;;5052078;28;20445;-50
2023/07/10 13:33:42;;;;;;;7.00;4.63;;;;;;;;;;5052048;28;20921;-51
2023/07/10 13:36:13;;;;;;;6.63;5.93;;;;;;;;;;5052539;28;20528;-50
2023/07/10 13:38:41;;;;;;;5.50;4.93;;;;;;;;;;5052602;28;20810;-51
2023/07/10 13:41:09;;;;;;;5.90;4.47;;;;;;;;;;5052399;28;20452;-51
2023/07/10 13:43:38;;;;;;;6.03;5.00;;;;;;;;;;5051921;28;21004;-50
2023/07/10 13:46:14;;;;;;;5.50;5.00;;;;;;;;;;5051964;28;20477;-50
2023/07/10 13:48:42;;;;;;;5.50;5.00;;;;;;;;;;5052491;28;20469;-50
2023/07/10 13:51:12;;;;;;;7.40;5.23;;;;;;;;;;5042549;28;20895;-50
2023/07/10 13:53:39;;;;;;;8.43;5.00;;;;;;;;;;5031440;28;20884;-50
2023/07/10 13:56:12;;;;;;;5.63;5.03;;;;;;;;;;5031574;28;20478;-50
2023/07/10 13:58:40;;;;;;;6.20;5.53;;;;;;;;;;5032013;28;20529;-50
2023/07/10 14:01:08;;;;;;;6.50;5.40;;;;;;;;;;5031648;28;20470;-50
2023/07/10 14:03:37;;;;;;;7.40;4.97;;;;;;;;;;5031722;28;20576;-51
2023/07/10 14:06:17;;;;;;;7.33;5.23;;;;;;;;;;5031748;28;20954;-51
2023/07/10 14:08:44;;;;;;;5.43;4.80;;;;;;;;;;5031362;28;21298;-52
2023/07/10 14:11:12;;;;;;;5.53;5.03;;;;;;;;;;5030708;28;20533;-52
2023/07/10 14:13:40;;;;;;;7.23;5.20;;;;;;;;;;5030937;28;20435;-51
2023/07/10 14:16:14;;;;;;;6.57;5.10;;;;;;;;;;5030313;28;20470;-50
2023/07/10 14:18:41;;;;;;;7.43;5.33;;;;;;;;;;5031115;28;20500;-50
2023/07/10 14:21:10;;;;;;;6.00;4.60;;;;;;;;;;5030772;28;20446;-50
2023/07/10 14:23:37;;;;;;;6.10;4.80;;;;;;;;;;5026078;28;20561;-51
2023/07/10 14:26:11;;;;;;;9.90;5.03;;;;;;;;;;5030525;28;20537;-50
2023/07/10 14:28:38;;;;;;;7.03;4.60;;;;;;;;;;5030336;28;20529;-52
2023/07/10 14:31:10;;;;;;;4.80;4.30;;;;;;;;;;5030606;28;20967;-52
2023/07/10 14:33:37;;;;;;;5.43;4.90;;;;;;;;;;5030585;28;20442;-51
2023/07/10 14:36:06;;;;;;;5.17;4.30;;;;;;;;;;5030194;28;20533;-51
2023/07/10 14:38:34;;;;;;;7.00;3.87;;;;;;;;;;5030423;28;21014;-51
2023/07/10 14:41:01;;;;;;;5.50;4.40;;;;;;;;;;5030533;28;20524;-50
2023/07/10 14:43:28;;;;;;;6.67;3.90;;;;;;;;;;5030034;28;20474;-51
2023/07/10 14:45:57;;;;;;;5.40;4.10;;;;;;;;;;5055660;23;21096;-53
2023/07/10 14:48:27;;;;;;;5.33;4.03;;;;;;;;;;5030364;28;20481;-55
2023/07/10 14:50:55;;;;;;;5.80;4.10;;;;;;;;;;5030500;28;20542;-56
2023/07/10 14:53:23;;;;;;;5.20;4.10;;;;;;;;;;5030153;28;20478;-53
2023/07/10 14:55:51;;;;;;;6.10;4.50;;;;;;;;;;5015191;28;20473;-55
2023/07/10 14:58:20;;;;;;;5.90;4.30;;;;;;;;;;5010524;28;20439;-53